Time;durP1;ratioP1;P1;durP2;ratioP2;P2;SDS_P1;SDS_P2;PMS_P1;PMS_P2;Temp;Humidity;BMP_temperature;BMP_pressure;BME280_temperature;BME280_humidity;BME280_pressure;Samples;Min_cycle;Max_cycle;Signal;HPM_P1;HPM_P2
2022/10/27 00:02:28;;;;;;;10.65;3.70;;;;;;;13.46;100.00;97378.38;10487330;28;20310;-63
2022/10/27 00:07:29;;;;;;;8.88;3.20;;;;;;;13.64;100.00;97380.06;10487455;28;20195;-62
2022/10/27 00:12:31;;;;;;;11.57;3.50;;;;;;;13.67;100.00;97377.13;10490354;28;20250;-62
2022/10/27 00:17:31;;;;;;;6.22;2.65;;;;;;;13.74;100.00;97383.41;10490546;28;20203;-63
2022/10/27 00:22:32;;;;;;;12.00;3.25;;;;;;;13.70;100.00;97384.69;10489504;28;20198;-62
2022/10/27 00:27:32;;;;;;;10.18;3.08;;;;;;;13.78;100.00;97389.16;10490348;28;20191;-62
2022/10/27 00:32:33;;;;;;;8.15;3.25;;;;;;;13.72;100.00;97399.34;10490008;28;20219;-63
2022/10/27 00:37:33;;;;;;;5.53;2.80;;;;;;;13.80;100.00;97409.09;10490021;28;20748;-61
2022/10/27 00:42:34;;;;;;;6.40;3.13;;;;;;;13.71;100.00;97410.06;10489698;28;20187;-63
2022/10/27 00:47:36;;;;;;;5.68;3.25;;;;;;;13.73;100.00;97414.16;10490089;28;20188;-63
2022/10/27 00:52:45;;;;;;;5.35;3.00;;;;;;;13.65;100.00;97413.31;10471582;28;20227;-63
2022/10/27 00:57:48;;;;;;;7.03;3.63;;;;;;;13.54;100.00;97424.97;10471735;28;20245;-63
2022/10/27 01:02:48;;;;;;;8.55;3.53;;;;;;;13.54;100.00;97428.41;10487969;28;20191;-63
2022/10/27 01:07:54;;;;;;;7.78;3.50;;;;;;;13.32;100.00;97431.53;10489505;28;20231;-62
2022/10/27 01:12:55;;;;;;;6.30;3.50;;;;;;;13.25;100.00;97430.53;10471202;28;20211;-62
2022/10/27 01:18:14;;;;;;;8.02;3.75;;;;;;;13.14;100.00;97434.22;10471752;28;20207;-62
2022/10/27 01:23:33;;;;;;;5.97;3.83;;;;;;;12.97;100.00;97438.53;10489176;28;20615;-62
2022/10/27 01:29:00;;;;;;;10.70;4.35;;;;;;;12.87;100.00;97445.72;10489174;28;20211;-62
2022/10/27 01:34:11;;;;;;;5.43;3.63;;;;;;;12.78;100.00;97450.09;10491570;28;20219;-62
2022/10/27 01:39:17;;;;;;;6.68;3.70;;;;;;;12.83;100.00;97453.06;10478056;28;20583;-62
2022/10/27 01:44:30;;;;;;;10.52;3.78;;;;;;;12.87;100.00;97457.06;10478404;28;20658;-63
2022/10/27 01:49:39;;;;;;;11.27;3.47;;;;;;;12.97;100.00;97447.28;10495939;28;20284;-63
2022/10/27 01:54:39;;;;;;;12.02;4.30;;;;;;;13.05;100.00;97450.94;10495681;28;20711;-62
2022/10/27 01:59:53;;;;;;;6.57;4.25;;;;;;;13.00;100.00;97451.38;10495687;28;20302;-63
2022/10/27 02:05:12;;;;;;;11.82;3.95;;;;;;;13.10;100.00;97452.13;10495352;28;20195;-63
2022/10/27 02:10:18;;;;;;;8.43;3.50;;;;;;;13.10;100.00;97448.69;10472585;28;20243;-62
2022/10/27 02:15:35;;;;;;;8.32;4.50;;;;;;;13.07;100.00;97447.19;10477081;28;20207;-61
2022/10/27 02:20:39;;;;;;;10.85;3.90;;;;;;;12.93;100.00;97448.56;10494654;28;20289;-62
2022/10/27 02:25:46;;;;;;;11.70;4.25;;;;;;;12.66;100.00;97452.97;10476574;28;20260;-62
2022/10/27 02:30:46;;;;;;;12.48;3.95;;;;;;;12.59;100.00;97461.59;10476085;28;20599;-62
2022/10/27 02:35:47;;;;;;;10.35;4.60;;;;;;;12.06;100.00;97457.94;10475741;28;20210;-61
2022/10/27 02:40:47;;;;;;;8.25;3.78;;;;;;;11.98;100.00;97466.56;10475623;28;20211;-61
2022/10/27 02:45:47;;;;;;;7.95;3.88;;;;;;;11.77;100.00;97472.84;10492568;28;20650;-63
2022/10/27 02:50:48;;;;;;;10.40;4.15;;;;;;;11.46;100.00;97479.34;10493287;28;20211;-63
2022/10/27 02:55:48;;;;;;;10.63;4.30;;;;;;;11.45;100.00;97485.53;10493167;28;20195;-62
2022/10/27 03:00:54;;;;;;;8.05;4.35;;;;;;;11.32;100.00;97489.31;10493378;28;20214;-61
2022/10/27 03:05:54;;;;;;;7.33;4.70;;;;;;;11.16;100.00;97499.53;10459909;28;20282;-62
2022/10/27 03:10:55;;;;;;;16.27;5.53;;;;;;;10.81;100.00;97501.78;10450859;28;20231;-62
2022/10/27 03:15:55;;;;;;;10.57;5.07;;;;;;;10.66;100.00;97514.47;10451560;28;20604;-63
2022/10/27 03:20:55;;;;;;;9.77;6.05;;;;;;;10.59;100.00;97515.97;10450917;28;20200;-62
2022/10/27 03:25:56;;;;;;;13.63;5.80;;;;;;;10.57;100.00;97530.19;10450925;28;20200;-62
2022/10/27 03:30:56;;;;;;;10.43;7.50;;;;;;;10.64;100.00;97540.00;10450546;28;20227;-62
2022/10/27 03:35:57;;;;;;;19.93;6.43;;;;;;;10.64;100.00;97545.25;10450699;28;20192;-61
2022/10/27 03:40:57;;;;;;;15.53;5.40;;;;;;;10.53;100.00;97542.72;10450412;28;20303;-62
2022/10/27 03:45:58;;;;;;;7.23;4.20;;;;;;;10.56;100.00;97545.06;10446397;28;20646;-63
2022/10/27 03:50:58;;;;;;;9.37;4.93;;;;;;;10.47;100.00;97551.94;10446807;28;20642;-63
2022/10/27 03:55:59;;;;;;;10.43;5.23;;;;;;;10.24;100.00;97567.03;10449782;28;20560;-62
2022/10/27 04:01:01;;;;;;;7.73;4.47;;;;;;;10.12;100.00;97562.84;10449902;28;20208;-62
2022/10/27 04:06:01;;;;;;;13.73;5.20;;;;;;;10.00;100.00;97583.91;10449608;28;20191;-62
2022/10/27 04:11:01;;;;;;;9.17;4.10;;;;;;;10.00;100.00;97596.97;10449349;28;20595;-61
2022/10/27 04:16:02;;;;;;;7.47;4.77;;;;;;;9.89;100.00;97591.00;10446472;28;20196;-62
2022/10/27 04:21:04;;;;;;;14.27;4.77;;;;;;;9.86;100.00;97599.94;10448689;28;20207;-62
2022/10/27 04:26:04;;;;;;;12.07;5.67;;;;;;;9.82;100.00;97596.75;10449146;28;20278;-62
2022/10/27 04:31:05;;;;;;;12.47;5.53;;;;;;;9.74;100.00;97611.44;10448961;28;20291;-63
2022/10/27 04:36:05;;;;;;;16.13;4.90;;;;;;;9.66;100.00;97613.88;10448725;28;20188;-62
2022/10/27 04:41:06;;;;;;;13.93;4.57;;;;;;;9.60;100.00;97626.53;10448847;28;20698;-62
2022/10/27 04:46:06;;;;;;;7.90;5.13;;;;;;;9.50;100.00;97628.22;10448854;28;20214;-60
2022/10/27 04:51:06;;;;;;;8.07;4.33;;;;;;;9.46;100.00;97621.59;10445311;28;20226;-62
2022/10/27 04:56:07;;;;;;;10.27;4.87;;;;;;;9.35;100.00;97621.66;10447491;28;20195;-62
2022/10/27 05:01:09;;;;;;;13.13;5.27;;;;;;;9.35;100.00;97626.88;10448292;28;20208;-62
2022/10/27 05:06:09;;;;;;;11.60;4.43;;;;;;;9.43;100.00;97638.38;10448403;28;20307;-62
2022/10/27 05:11:10;;;;;;;6.93;4.73;;;;;;;9.35;100.00;97639.97;10454342;28;20783;-62
2022/10/27 05:16:10;;;;;;;7.07;4.13;;;;;;;9.27;100.00;97635.34;10456195;28;20199;-62
2022/10/27 05:21:11;;;;;;;7.30;3.73;;;;;;;9.28;100.00;97637.84;10456028;28;20686;-62
2022/10/27 05:26:11;;;;;;;6.80;4.10;;;;;;;9.23;100.00;97640.00;10478495;28;20233;-62
2022/10/27 05:31:11;;;;;;;12.23;5.67;;;;;;;9.18;100.00;97628.25;10496908;28;20388;-62
2022/10/27 05:36:12;;;;;;;9.73;4.67;;;;;;;9.16;100.00;97633.63;10496815;28;20183;-62
2022/10/27 05:41:12;;;;;;;15.60;5.70;;;;;;;9.09;100.00;97641.09;10496516;28;20211;-62
2022/10/27 05:46:12;;;;;;;10.93;6.00;;;;;;;9.08;100.00;97646.47;10496499;28;20191;-61
2022/10/27 05:51:13;;;;;;;15.37;5.10;;;;;;;9.15;100.00;97652.88;10495474;28;20241;-62
2022/10/27 05:56:13;;;;;;;12.80;6.07;;;;;;;9.17;100.00;97650.94;10496469;28;20193;-61
2022/10/27 06:01:13;;;;;;;16.50;7.17;;;;;;;9.17;100.00;97647.50;10495152;28;20304;-62
2022/10/27 06:06:14;;;;;;;14.40;5.90;;;;;;;9.15;100.00;97652.88;10495504;28;20195;-62
2022/10/27 06:11:14;;;;;;;13.50;5.33;;;;;;;9.05;100.00;97654.56;10495440;28;20223;-62
2022/10/27 06:16:15;;;;;;;12.87;6.23;;;;;;;9.04;100.00;97658.13;10495185;28;20682;-62
2022/10/27 06:21:15;;;;;;;11.97;7.37;;;;;;;9.06;100.00;97653.59;10494099;28;20253;-62
2022/10/27 06:26:15;;;;;;;10.53;7.20;;;;;;;9.03;100.00;97667.75;10494817;28;20187;-62
2022/10/27 06:31:16;;;;;;;21.13;7.63;;;;;;;9.13;100.00;97665.25;10494713;28;20268;-62
2022/10/27 06:36:16;;;;;;;12.50;6.60;;;;;;;9.16;100.00;97665.00;10494464;28;20804;-62
2022/10/27 06:41:16;;;;;;;10.73;6.07;;;;;;;9.10;100.00;97661.06;10494259;28;20207;-62
2022/10/27 06:46:17;;;;;;;15.93;6.57;;;;;;;9.19;100.00;97671.72;10494330;28;20332;-62
2022/10/27 06:51:17;;;;;;;19.23;7.63;;;;;;;9.25;100.00;97671.28;10479379;28;20212;-62
2022/10/27 06:56:18;;;;;;;11.73;6.83;;;;;;;9.36;100.00;97679.06;10451751;28;20192;-62
2022/10/27 07:01:19;;;;;;;6.30;5.20;;;;;;;9.70;100.00;97688.53;10446148;28;20204;-62
2022/10/27 07:06:19;;;;;;;13.60;6.87;;;;;;;10.20;100.00;97680.88;10449319;28;20218;-62
2022/10/27 07:11:19;;;;;;;14.53;5.30;;;;;;;10.71;100.00;97664.25;10448082;28;20327;-62
2022/10/27 07:16:20;;;;;;;10.65;4.82;;;;;;;11.32;100.00;97656.38;10450307;28;20283;-61
2022/10/27 07:21:20;;;;;;;14.60;4.82;;;;;;;11.87;100.00;97653.16;10449113;28;20207;-62
2022/10/27 07:26:21;;;;;;;13.43;4.15;;;;;;;12.27;100.00;97642.41;10448937;28;20685;-62
2022/10/27 07:31:21;;;;;;;8.98;4.05;;;;;;;12.34;100.00;97641.81;10450145;28;20310;-62
2022/10/27 07:36:21;;;;;;;8.38;3.60;;;;;;;12.53;100.00;97640.94;10449175;28;20192;-62
2022/10/27 07:41:22;;;;;;;7.88;3.50;;;;;;;13.03;100.00;97640.47;10448320;28;20216;-61
2022/10/27 07:46:22;;;;;;;5.95;3.50;;;;;;;13.37;100.00;97638.03;10448975;28;20539;-59
2022/10/27 07:51:23;;;;;;;9.35;2.78;;;;;;;13.66;100.00;97636.13;10449042;28;20228;-60
2022/10/27 07:56:23;;;;;;;7.82;2.42;;;;;;;13.61;100.00;97630.50;10449313;28;20203;-62
2022/10/27 08:01:23;;;;;;;9.07;3.10;;;;;;;14.36;100.00;97635.25;10451598;28;20254;-62
2022/10/27 08:06:24;;;;;;;8.10;3.17;;;;;;;14.45;100.00;97624.56;10451229;28;20194;-62
2022/10/27 08:11:24;;;;;;;6.20;2.63;;;;;;;14.97;100.00;97623.59;10447510;28;20314;-62
2022/10/27 08:16:24;;;;;;;5.32;2.28;;;;;;;15.07;100.00;97612.91;10445564;28;20279;-62
2022/10/27 08:21:25;;;;;;;4.05;2.53;;;;;;;15.42;100.00;97615.41;10448313;28;20292;-62
2022/10/27 08:26:25;;;;;;;9.73;2.65;;;;;;;14.61;100.00;97628.31;10448434;28;20257;-62
2022/10/27 08:31:26;;;;;;;4.43;2.20;;;;;;;15.61;100.00;97625.66;10448149;28;20226;-62
2022/10/27 08:36:26;;;;;;;9.93;2.17;;;;;;;16.43;100.00;97627.31;10447754;28;20184;-61
2022/10/27 08:41:37;;;;;;;4.32;3.63;;;;;;;17.39;100.00;97600.69;10447754;28;20204;-60
2022/10/27 08:46:52;;;;;;;4.40;3.05;;;;;;;17.80;100.00;97592.38;10436196;28;20723;-61
2022/10/27 08:51:56;;;;;;;4.30;1.65;;;;;;;18.52;92.53;97551.94;10456230;28;20680;-62
2022/10/27 08:56:59;;;;;;;4.00;2.00;;;;;;;19.11;89.92;97554.63;10455671;28;20594;-61
2022/10/27 09:02:02;;;;;;;2.55;1.30;;;;;;;19.35;86.00;97534.81;10455966;28;20286;-63
2022/10/27 09:07:15;;;;;;;7.72;1.33;;;;;;;18.63;85.53;97532.06;10455331;28;20242;-61
2022/10/27 09:12:43;;;;;;;3.88;1.20;;;;;;;19.12;84.80;97543.00;10435970;28;20220;-62
2022/10/27 09:17:58;;;;;;;5.65;1.48;;;;;;;19.93;76.81;97489.44;10451493;28;20565;-62
2022/10/27 09:23:01;;;;;;;5.13;1.17;;;;;;;20.57;74.05;97485.56;10455134;28;20196;-62
2022/10/27 09:28:02;;;;;;;1.85;0.98;;;;;;;21.87;68.10;97439.84;10436607;28;20219;-61
2022/10/27 09:33:09;;;;;;;6.05;1.10;;;;;;;21.64;65.88;97429.66;10436595;28;20690;-61
2022/10/27 09:38:14;;;;;;;4.10;1.10;;;;;;;21.23;71.58;97508.03;10436813;28;20219;-61
2022/10/27 09:43:15;;;;;;;3.50;1.20;;;;;;;22.59;63.32;97421.03;10453207;28;20560;-63
2022/10/27 09:48:20;;;;;;;2.63;1.10;;;;;;;22.07;61.31;97388.25;10456274;28;20260;-62
2022/10/27 09:53:38;;;;;;;2.10;0.75;;;;;;;21.22;60.79;97374.97;10452470;28;20255;-63
2022/10/27 09:58:45;;;;;;;1.90;0.73;;;;;;;22.07;59.95;97388.25;10453725;28;20269;-62
2022/10/27 10:04:02;;;;;;;0.80;0.70;;;;;;;20.33;65.63;97452.34;10453228;28;20271;-63
2022/10/27 10:09:20;;;;;;;1.17;0.70;;;;;;;22.67;58.24;97376.41;10434739;28;20239;-63
2022/10/27 10:14:23;;;;;;;1.58;0.60;;;;;;;22.95;57.01;97371.41;10452893;28;20235;-63
2022/10/27 10:19:23;;;;;;;1.83;0.70;;;;;;;23.48;56.25;97374.66;10452660;28;20687;-63
2022/10/27 10:24:27;;;;;;;0.88;0.70;;;;;;;20.62;60.76;97384.63;10451314;28;20203;-63
2022/10/27 10:29:30;;;;;;;1.48;0.57;;;;;;;22.99;57.99;97390.53;10434470;28;20208;-62
2022/10/27 10:34:32;;;;;;;1.73;0.68;;;;;;;21.19;61.01;97401.03;10434151;28;20223;-60
2022/10/27 10:39:35;;;;;;;0.55;0.55;;;;;;;21.03;63.17;97431.56;10452136;28;20761;-62
2022/10/27 10:44:36;;;;;;;1.02;0.70;;;;;;;22.39;59.62;97399.81;10433801;28;20718;-62
2022/10/27 10:49:42;;;;;;;2.13;0.90;;;;;;;20.76;63.95;97445.91;10451717;28;21067;-62
2022/10/27 10:54:43;;;;;;;1.70;0.90;;;;;;;21.89;59.91;97395.09;10450058;28;20212;-62
2022/10/27 10:59:44;;;;;;;3.00;0.80;;;;;;;22.12;59.06;97383.09;10430261;28;20212;-62
2022/10/27 11:04:48;;;;;;;0.95;0.65;;;;;;;24.33;55.52;97383.66;10445882;28;20207;-63
2022/10/27 11:10:05;;;;;;;3.30;0.80;;;;;;;25.11;51.94;97336.25;10448099;28;20314;-61
2022/10/27 11:15:31;;;;;;;2.38;0.60;;;;;;;23.41;54.16;97333.78;10450275;28;20219;-63
2022/10/27 11:20:34;;;;;;;2.50;0.80;;;;;;;21.42;56.92;97327.75;10432785;28;20725;-63
2022/10/27 11:25:35;;;;;;;4.38;0.88;;;;;;;22.45;54.74;97323.38;10431031;28;20200;-63
2022/10/27 11:30:38;;;;;;;3.10;1.00;;;;;;;21.76;57.92;97367.66;10449733;28;20740;-63
2022/10/27 11:35:52;;;;;;;2.35;0.80;;;;;;;24.02;52.62;97332.81;10450006;28;20196;-63
2022/10/27 11:40:56;;;;;;;7.78;0.70;;;;;;;22.03;55.94;97336.34;10449650;28;20220;-62
2022/10/27 11:46:23;;;;;;;1.83;0.73;;;;;;;21.96;54.77;97317.72;10447889;28;20192;-62
2022/10/27 11:51:28;;;;;;;0.75;0.75;;;;;;;23.44;53.32;97342.16;10431057;28;20232;-61
2022/10/27 11:57:12;;;;;;;3.00;0.98;;;;;;;22.19;54.11;97305.66;10430144;28;20184;-61
2022/10/27 12:02:41;;;;;;;2.63;0.90;;;;;;;22.49;54.00;97321.88;10372881;28;20298;-60
2022/10/27 12:07:46;;;;;;;2.05;0.90;;;;;;;22.02;55.45;97316.84;10448081;28;20204;-60
2022/10/27 12:12:50;;;;;;;4.03;1.10;;;;;;;22.51;54.54;97329.69;10430611;28;20242;-60
2022/10/27 12:17:56;;;;;;;4.80;0.93;;;;;;;22.69;53.17;97291.53;10447708;28;20196;-60
2022/10/27 12:23:05;;;;;;;4.35;1.08;;;;;;;22.73;53.45;97296.22;10448324;28;20211;-62
2022/10/27 12:28:11;;;;;;;1.00;0.70;;;;;;;21.61;54.89;97286.09;10447845;28;20230;-62
2022/10/27 12:33:21;;;;;;;2.45;1.13;;;;;;;21.92;54.97;97305.81;10461202;28;20732;-62
2022/10/27 12:38:39;;;;;;;3.95;1.00;;;;;;;21.91;55.33;97297.03;10487862;28;20252;-61
2022/10/27 12:43:43;;;;;;;3.17;1.00;;;;;;;21.29;55.44;97283.34;10489163;28;20187;-62
2022/10/27 12:49:01;;;;;;;2.33;0.82;;;;;;;21.49;55.79;97290.44;10489372;28;20219;-62
2022/10/27 12:54:18;;;;;;;1.50;1.10;;;;;;;21.56;56.84;97312.56;10471519;28;20219;-62
2022/10/27 12:59:41;;;;;;;3.75;0.90;;;;;;;21.80;54.08;97271.00;10471098;28;20246;-62
2022/10/27 13:04:54;;;;;;;1.02;0.90;;;;;;;20.63;55.05;97255.81;10469828;28;21006;-61
2022/10/27 13:10:32;;;;;;;1.25;0.82;;;;;;;21.16;54.71;97262.06;10488238;28;20248;-63
2022/10/27 13:15:46;;;;;;;2.67;0.90;;;;;;;21.17;54.69;97259.19;10470815;28;20223;-63
2022/10/27 13:20:52;;;;;;;1.10;1.00;;;;;;;20.83;56.28;97279.78;10470516;28;20708;-62
2022/10/27 13:26:15;;;;;;;1.60;1.20;;;;;;;21.57;53.54;97252.88;10453114;28;20188;-60
2022/10/27 13:31:21;;;;;;;1.58;1.23;;;;;;;22.15;52.46;97253.75;10433767;28;20224;-63
2022/10/27 13:36:22;;;;;;;2.83;1.10;;;;;;;21.18;53.68;97246.69;10452463;28;20214;-62
2022/10/27 13:41:45;;;;;;;2.08;1.17;;;;;;;21.05;52.77;97215.56;10436311;28;20210;-61
2022/10/27 13:47:01;;;;;;;1.42;0.85;;;;;;;21.21;52.25;97214.28;10453973;28;20226;-60
2022/10/27 13:52:16;;;;;;;2.28;1.10;;;;;;;21.49;52.81;97232.63;10453961;28;20224;-62
2022/10/27 13:57:44;;;;;;;5.97;1.60;;;;;;;20.73;56.11;97276.69;10453668;28;20188;-60
2022/10/27 14:02:56;;;;;;;3.90;1.25;;;;;;;21.02;55.39;97263.94;10435474;28;20184;-61
2022/10/27 14:07:57;;;;;;;2.08;1.05;;;;;;;22.11;52.72;97249.88;10451942;28;20211;-61
2022/10/27 14:12:58;;;;;;;1.35;1.00;;;;;;;21.32;53.26;97224.28;10453068;28;20689;-62
2022/10/27 14:17:58;;;;;;;2.85;1.30;;;;;;;21.14;53.61;97219.63;10452129;28;20215;-61
2022/10/27 14:23:13;;;;;;;2.35;1.30;;;;;;;20.87;54.75;97242.06;10452576;28;20176;-60
2022/10/27 14:28:21;;;;;;;4.22;1.38;;;;;;;20.92;54.14;97232.44;10434770;28;20239;-61
2022/10/27 14:33:24;;;;;;;2.75;1.38;;;;;;;21.31;54.24;97238.63;10452128;28;20247;-60
2022/10/27 14:38:24;;;;;;;5.60;1.67;;;;;;;20.19;56.21;97243.97;10449619;28;20242;-60
2022/10/27 14:43:25;;;;;;;2.38;1.38;;;;;;;19.69;58.12;97273.53;10440370;28;20177;-60
2022/10/27 14:48:28;;;;;;;3.53;1.23;;;;;;;19.58;59.10;97290.06;10431872;28;20211;-58
2022/10/27 14:53:34;;;;;;;3.28;1.40;;;;;;;18.67;60.98;97296.31;10452161;28;20216;-55
2022/10/27 14:58:35;;;;;;;6.20;1.63;;;;;;;17.24;66.17;97355.19;10434039;28;20216;-60
2022/10/27 15:03:35;;;;;;;4.45;1.98;;;;;;;16.83;67.86;97371.47;10451051;28;20192;-58
2022/10/27 15:08:35;;;;;;;2.78;1.83;;;;;;;16.53;70.44;97397.81;10451696;28;20732;-61
2022/10/27 15:13:36;;;;;;;4.05;2.03;;;;;;;16.13;73.03;97415.63;10451373;28;20730;-62
2022/10/27 15:18:41;;;;;;;4.38;2.10;;;;;;;15.84;74.85;97426.84;10433547;28;20228;-61
2022/10/27 15:23:43;;;;;;;6.18;2.53;;;;;;;15.63;77.47;97432.66;10451342;28;20258;-62
2022/10/27 15:28:44;;;;;;;6.57;2.80;;;;;;;15.34;80.32;97440.19;10433053;28;20558;-61
2022/10/27 15:33:46;;;;;;;8.68;3.40;;;;;;;14.89;83.73;97431.00;10449072;28;20304;-61
2022/10/27 15:38:48;;;;;;;6.93;3.00;;;;;;;14.63;87.48;97437.28;10450728;28;20231;-62
2022/10/27 15:44:10;;;;;;;8.63;3.20;;;;;;;14.52;89.78;97439.41;10449378;28;20191;-61
2022/10/27 15:49:15;;;;;;;8.25;3.53;;;;;;;14.07;94.76;97452.81;10423518;28;20307;-62
2022/10/27 15:54:21;;;;;;;12.93;7.05;;;;;;;13.85;99.87;97458.66;10408113;28;20220;-62
2022/10/27 15:59:22;;;;;;;6.95;3.25;;;;;;;13.79;100.00;97465.38;10407865;28;20796;-62
2022/10/27 16:04:29;;;;;;;10.73;3.47;;;;;;;13.79;100.00;97460.09;10408076;28;20212;-60
2022/10/27 16:09:38;;;;;;;7.85;5.43;;;;;;;13.75;100.00;97474.56;10408151;28;20248;-60
2022/10/27 16:14:43;;;;;;;12.50;7.43;;;;;;;13.83;100.00;97466.72;10408029;28;20220;-61
2022/10/27 16:19:43;;;;;;;13.52;4.35;;;;;;;13.78;100.00;97473.44;10407932;28;20209;-61
2022/10/27 16:24:44;;;;;;;12.35;4.85;;;;;;;13.52;100.00;97467.22;10408076;28;20184;-60
2022/10/27 16:29:45;;;;;;;9.73;5.32;;;;;;;13.40;100.00;97472.91;10407846;28;20315;-62
2022/10/27 16:34:46;;;;;;;12.05;6.78;;;;;;;13.32;100.00;97482.38;10407292;28;20227;-62
2022/10/27 16:39:46;;;;;;;9.18;4.82;;;;;;;13.27;100.00;97486.44;10407385;28;20215;-62
2022/10/27 16:44:47;;;;;;;36.90;12.65;;;;;;;13.25;100.00;97491.06;10407019;28;20192;-62
2022/10/27 16:49:47;;;;;;;64.90;19.77;;;;;;;13.26;100.00;97483.00;10407092;28;20212;-62
2022/10/27 16:54:48;;;;;;;119.25;32.33;;;;;;;13.27;100.00;97484.63;10407147;28;20645;-62
2022/10/27 16:59:48;;;;;;;54.95;24.85;;;;;;;13.25;100.00;97493.69;10405502;28;20266;-62
2022/10/27 17:04:49;;;;;;;33.88;18.77;;;;;;;13.38;100.00;97492.31;10409900;28;20267;-62
2022/10/27 17:09:51;;;;;;;13.82;7.20;;;;;;;13.37;100.00;97487.22;10415116;28;20235;-62
2022/10/27 17:14:51;;;;;;;8.75;4.35;;;;;;;13.47;100.00;97485.28;10415347;28;20213;-60
2022/10/27 17:19:51;;;;;;;9.05;4.20;;;;;;;13.53;100.00;97476.75;10414767;28;20212;-61
2022/10/27 17:24:52;;;;;;;7.53;3.70;;;;;;;13.62;100.00;97474.19;10414710;28;20678;-62
2022/10/27 17:29:52;;;;;;;6.97;3.42;;;;;;;13.56;100.00;97471.19;10414643;28;20267;-62
2022/10/27 17:34:52;;;;;;;8.85;3.47;;;;;;;13.50;100.00;97465.72;10414095;28;20320;-60
2022/10/27 17:39:54;;;;;;;5.80;3.38;;;;;;;13.49;100.00;97472.81;10414444;28;20242;-62
2022/10/27 17:44:54;;;;;;;6.45;2.83;;;;;;;13.56;100.00;97465.91;10413921;28;20250;-62
2022/10/27 17:49:55;;;;;;;7.45;3.90;;;;;;;13.61;100.00;97478.59;10405257;22;20671;-63
2022/10/27 17:54:55;;;;;;;5.70;3.50;;;;;;;13.59;100.00;97477.13;10375862;28;20233;-64
2022/10/27 17:59:56;;;;;;;8.05;3.03;;;;;;;13.60;100.00;97476.13;10375807;28;20247;-62
2022/10/27 18:04:56;;;;;;;4.90;3.10;;;;;;;13.68;100.00;97463.03;10375735;28;20189;-64
2022/10/27 18:09:57;;;;;;;6.30;2.97;;;;;;;13.79;100.00;97454.84;10375477;28;20217;-64
2022/10/27 18:14:57;;;;;;;8.82;3.70;;;;;;;13.72;100.00;97464.34;10375311;28;20665;-64
2022/10/27 18:19:58;;;;;;;9.73;4.28;;;;;;;13.76;100.00;97460.41;10374917;28;20591;-62
2022/10/27 18:24:58;;;;;;;7.57;3.78;;;;;;;13.79;100.00;97460.09;10375063;28;20593;-64
2022/10/27 18:29:58;;;;;;;7.95;4.10;;;;;;;13.84;100.00;97465.75;10374790;28;20225;-63
2022/10/27 18:34:59;;;;;;;12.25;5.68;;;;;;;13.70;100.00;97459.22;10374565;28;20235;-64
2022/10/27 18:39:59;;;;;;;12.63;6.43;;;;;;;13.85;100.00;97453.38;10374571;28;20213;-64
2022/10/27 18:45:00;;;;;;;11.45;6.20;;;;;;;13.74;100.00;97459.75;10373788;28;20185;-61
2022/10/27 18:50:00;;;;;;;12.80;5.38;;;;;;;13.82;100.00;97443.97;10373961;28;20236;-62
2022/10/27 18:55:00;;;;;;;10.43;7.07;;;;;;;13.81;100.00;97439.69;10373455;28;20296;-61
2022/10/27 19:00:01;;;;;;;10.90;5.75;;;;;;;13.82;100.00;97443.16;10373489;28;20209;-63
2022/10/27 19:05:02;;;;;;;8.13;4.28;;;;;;;13.80;100.00;97445.13;10373110;28;20699;-64
2022/10/27 19:10:02;;;;;;;8.00;4.43;;;;;;;13.90;100.00;97440.56;10373072;28;20212;-64
2022/10/27 19:15:03;;;;;;;15.27;5.60;;;;;;;13.89;100.00;97439.75;10372983;28;20321;-61
2022/10/27 19:20:03;;;;;;;10.70;6.15;;;;;;;13.92;100.00;97430.69;10372450;28;20217;-63
2022/10/27 19:25:04;;;;;;;13.73;6.50;;;;;;;13.93;100.00;97428.88;10372746;28;20559;-61
2022/10/27 19:30:05;;;;;;;13.85;7.00;;;;;;;13.86;100.00;97437.44;10362894;28;20271;-63
2022/10/27 19:35:05;;;;;;;11.23;6.55;;;;;;;13.90;100.00;97441.41;10351351;28;20218;-62
2022/10/27 19:40:07;;;;;;;16.45;7.38;;;;;;;13.91;100.00;97421.97;10349268;28;20360;-61
2022/10/27 19:45:08;;;;;;;16.85;7.35;;;;;;;13.94;100.00;97425.28;10350634;28;20182;-62
2022/10/27 19:50:08;;;;;;;12.45;6.97;;;;;;;13.95;100.00;97434.81;10350741;28;20229;-62
2022/10/27 19:55:08;;;;;;;13.38;7.97;;;;;;;13.87;100.00;97444.34;10370804;28;20221;-62
2022/10/27 20:00:09;;;;;;;19.38;8.38;;;;;;;13.82;100.00;97432.63;10370356;28;20239;-63
2022/10/27 20:05:10;;;;;;;16.17;8.85;;;;;;;13.83;100.00;97442.19;10370556;28;20191;-61
2022/10/27 20:10:10;;;;;;;16.05;8.77;;;;;;;13.77;100.00;97435.75;10370274;28;20569;-62
2022/10/27 20:15:11;;;;;;;16.60;8.98;;;;;;;13.84;100.00;97447.31;10369942;28;20213;-61
2022/10/27 20:20:11;;;;;;;14.23;9.93;;;;;;;13.90;100.00;97437.91;10369882;28;20216;-61
2022/10/27 20:25:12;;;;;;;13.70;8.65;;;;;;;14.05;100.00;97432.88;10369991;28;20193;-62
2022/10/27 20:30:12;;;;;;;14.70;7.93;;;;;;;14.09;100.00;97436.84;10370004;28;20283;-63
2022/10/27 20:35:12;;;;;;;16.45;9.23;;;;;;;14.06;100.00;97445.88;10369472;28;20319;-61
2022/10/27 20:40:13;;;;;;;21.23;10.13;;;;;;;14.01;100.00;97447.34;10368436;28;20575;-64
2022/10/27 20:45:13;;;;;;;20.05;9.82;;;;;;;14.02;100.00;97444.53;10369197;28;20213;-64
2022/10/27 20:50:13;;;;;;;12.18;7.05;;;;;;;14.02;100.00;97443.72;10362577;28;20234;-63
2022/10/27 20:55:14;;;;;;;15.15;8.52;;;;;;;14.05;100.00;97443.41;10344411;28;20201;-63
2022/10/27 21:00:14;;;;;;;14.38;6.88;;;;;;;13.98;100.00;97437.13;10346884;28;20216;-63
2022/10/27 21:05:15;;;;;;;17.45;7.55;;;;;;;14.07;100.00;97425.63;10345898;28;20777;-62
2022/10/27 21:10:15;;;;;;;15.15;6.88;;;;;;;14.09;100.00;97426.31;10353821;28;20235;-64
2022/10/27 21:15:16;;;;;;;9.65;5.63;;;;;;;14.11;100.00;97426.13;10348044;28;20217;-63
2022/10/27 21:20:16;;;;;;;7.13;4.78;;;;;;;14.07;100.00;97430.88;10329658;28;20218;-63
2022/10/27 21:25:16;;;;;;;8.20;5.00;;;;;;;14.17;100.00;97415.78;10328375;28;20557;-63
2022/10/27 21:30:17;;;;;;;12.13;4.65;;;;;;;14.09;100.00;97419.22;10507354;22;20633;-62
2022/10/27 21:35:18;;;;;;;7.13;4.00;;;;;;;14.08;100.00;97414.09;10490317;28;20212;-63
2022/10/27 21:40:18;;;;;;;7.82;4.40;;;;;;;14.13;100.00;97417.06;10451657;28;20204;-63
2022/10/27 21:45:19;;;;;;;10.45;3.90;;;;;;;14.18;100.00;97400.78;10449043;28;20188;-63
2022/10/27 21:50:19;;;;;;;5.88;3.00;;;;;;;14.14;100.00;97399.47;10450300;28;20329;-62
2022/10/27 21:55:19;;;;;;;8.52;3.88;;;;;;;14.06;100.00;97403.72;10455827;28;20220;-62
2022/10/27 22:00:20;;;;;;;8.15;3.60;;;;;;;14.11;100.00;97400.59;10454822;28;20200;-60
2022/10/27 22:05:20;;;;;;;11.40;3.70;;;;;;;14.15;100.00;97401.94;10455253;28;20651;-62
2022/10/27 22:10:20;;;;;;;11.35;3.55;;;;;;;14.14;100.00;97394.19;10455205;28;20236;-63
2022/10/27 22:15:21;;;;;;;5.22;3.60;;;;;;;14.15;100.00;97394.03;10454703;28;20208;-63
2022/10/27 22:20:21;;;;;;;5.97;2.75;;;;;;;14.20;100.00;97386.47;10454919;28;20318;-63
2022/10/27 22:25:22;;;;;;;6.60;3.28;;;;;;;14.12;100.00;97380.34;10454530;28;20645;-63
2022/10/27 22:30:22;;;;;;;6.70;3.42;;;;;;;14.15;100.00;97374.75;10420709;28;1020277;-64
2022/10/27 22:35:22;;;;;;;8.25;3.22;;;;;;;14.19;100.00;97368.19;10456456;28;20306;-64
2022/10/27 22:40:23;;;;;;;5.85;3.10;;;;;;;14.26;100.00;97366.53;10456352;28;20717;-63
2022/10/27 22:45:23;;;;;;;13.10;3.85;;;;;;;14.30;100.00;97369.66;10456125;28;20570;-64
2022/10/27 22:50:23;;;;;;;9.40;3.30;;;;;;;14.27;100.00;97363.75;10455986;28;20211;-62
2022/10/27 22:55:24;;;;;;;4.53;2.70;;;;;;;14.13;100.00;97367.00;10455692;28;20303;-64
2022/10/27 23:00:25;;;;;;;6.00;3.20;;;;;;;14.11;100.00;97363.72;10455162;28;20207;-61
2022/10/27 23:05:25;;;;;;;4.25;2.63;;;;;;;14.14;100.00;97357.31;10454432;28;20278;-61
2022/10/27 23:10:25;;;;;;;5.80;3.00;;;;;;;14.19;100.00;97361.09;10455266;28;20211;-63
2022/10/27 23:15:26;;;;;;;7.70;2.55;;;;;;;14.12;100.00;97360.09;10454986;28;20239;-61